sensor_id;sensor_type;location;lat;lon;timestamp;P1;durP1;ratioP1;P2;durP2;ratioP2
58015;SDS011;43809;52.110;20.964;2023-05-07T00:01:43;3.40;;;2.57;;
58015;SDS011;43809;52.110;20.964;2023-05-07T00:03:44;3.60;;;2.40;;
58015;SDS011;43809;52.110;20.964;2023-05-07T00:05:44;5.78;;;3.25;;
58015;SDS011;43809;52.110;20.964;2023-05-07T00:07:44;5.03;;;2.83;;
58015;SDS011;43809;52.110;20.964;2023-05-07T00:09:45;4.45;;;2.83;;
58015;SDS011;43809;52.110;20.964;2023-05-07T00:11:45;4.22;;;2.85;;
58015;SDS011;43809;52.110;20.964;2023-05-07T00:13:45;3.38;;;2.60;;
58015;SDS011;43809;52.110;20.964;2023-05-07T00:15:45;4.30;;;3.20;;
58015;SDS011;43809;52.110;20.964;2023-05-07T00:17:46;5.30;;;3.20;;
58015;SDS011;43809;52.110;20.964;2023-05-07T00:19:46;4.28;;;3.03;;
58015;SDS011;43809;52.110;20.964;2023-05-07T00:21:46;5.00;;;3.08;;
58015;SDS011;43809;52.110;20.964;2023-05-07T00:23:46;3.30;;;2.70;;
58015;SDS011;43809;52.110;20.964;2023-05-07T00:25:47;4.43;;;2.80;;
58015;SDS011;43809;52.110;20.964;2023-05-07T00:27:47;4.65;;;3.13;;
58015;SDS011;43809;52.110;20.964;2023-05-07T00:29:47;3.38;;;2.33;;
58015;SDS011;43809;52.110;20.964;2023-05-07T00:31:48;3.10;;;2.20;;
58015;SDS011;43809;52.110;20.964;2023-05-07T00:33:51;3.95;;;2.55;;
58015;SDS011;43809;52.110;20.964;2023-05-07T00:35:51;4.82;;;2.80;;
58015;SDS011;43809;52.110;20.964;2023-05-07T00:37:51;4.20;;;2.50;;
58015;SDS011;43809;52.110;20.964;2023-05-07T00:39:51;4.38;;;2.85;;
58015;SDS011;43809;52.110;20.964;2023-05-07T00:41:52;5.82;;;2.85;;
58015;SDS011;43809;52.110;20.964;2023-05-07T00:43:52;4.40;;;2.70;;
58015;SDS011;43809;52.110;20.964;2023-05-07T00:45:52;4.72;;;2.60;;
58015;SDS011;43809;52.110;20.964;2023-05-07T00:47:55;3.53;;;2.55;;
58015;SDS011;43809;52.110;20.964;2023-05-07T00:49:57;3.35;;;2.80;;
58015;SDS011;43809;52.110;20.964;2023-05-07T00:51:57;4.75;;;2.78;;
58015;SDS011;43809;52.110;20.964;2023-05-07T00:54:02;3.38;;;2.40;;
58015;SDS011;43809;52.110;20.964;2023-05-07T00:56:02;4.28;;;2.92;;
58015;SDS011;43809;52.110;20.964;2023-05-07T00:58:03;4.38;;;2.75;;
58015;SDS011;43809;52.110;20.964;2023-05-07T01:00:04;5.63;;;2.80;;
58015;SDS011;43809;52.110;20.964;2023-05-07T01:02:04;5.03;;;3.05;;
58015;SDS011;43809;52.110;20.964;2023-05-07T01:04:04;4.97;;;2.42;;
58015;SDS011;43809;52.110;20.964;2023-05-07T01:06:05;3.40;;;2.85;;
58015;SDS011;43809;52.110;20.964;2023-05-07T01:08:06;3.78;;;2.83;;
58015;SDS011;43809;52.110;20.964;2023-05-07T01:10:06;6.10;;;3.58;;
58015;SDS011;43809;52.110;20.964;2023-05-07T01:12:07;6.43;;;3.38;;
58015;SDS011;43809;52.110;20.964;2023-05-07T01:14:08;4.43;;;2.92;;
58015;SDS011;43809;52.110;20.964;2023-05-07T01:16:09;3.80;;;2.83;;
58015;SDS011;43809;52.110;20.964;2023-05-07T01:18:09;4.70;;;2.72;;
58015;SDS011;43809;52.110;20.964;2023-05-07T01:20:10;5.18;;;2.85;;
58015;SDS011;43809;52.110;20.964;2023-05-07T01:22:10;5.20;;;2.72;;
58015;SDS011;43809;52.110;20.964;2023-05-07T01:24:14;4.07;;;2.60;;
58015;SDS011;43809;52.110;20.964;2023-05-07T01:26:15;3.00;;;2.13;;
58015;SDS011;43809;52.110;20.964;2023-05-07T01:28:16;3.97;;;2.90;;
58015;SDS011;43809;52.110;20.964;2023-05-07T01:30:16;3.45;;;2.50;;
58015;SDS011;43809;52.110;20.964;2023-05-07T01:32:17;4.43;;;2.63;;
58015;SDS011;43809;52.110;20.964;2023-05-07T01:34:18;6.47;;;3.17;;
58015;SDS011;43809;52.110;20.964;2023-05-07T01:36:20;5.27;;;3.30;;
58015;SDS011;43809;52.110;20.964;2023-05-07T01:38:22;4.22;;;2.90;;
58015;SDS011;43809;52.110;20.964;2023-05-07T01:40:24;4.43;;;2.55;;
58015;SDS011;43809;52.110;20.964;2023-05-07T01:42:24;4.25;;;2.72;;
58015;SDS011;43809;52.110;20.964;2023-05-07T01:44:25;4.25;;;2.50;;
58015;SDS011;43809;52.110;20.964;2023-05-07T01:46:26;4.20;;;2.72;;
58015;SDS011;43809;52.110;20.964;2023-05-07T01:48:26;3.50;;;2.75;;
58015;SDS011;43809;52.110;20.964;2023-05-07T01:50:27;4.28;;;2.75;;
58015;SDS011;43809;52.110;20.964;2023-05-07T01:52:28;3.50;;;2.60;;
58015;SDS011;43809;52.110;20.964;2023-05-07T01:54:28;4.65;;;3.03;;
58015;SDS011;43809;52.110;20.964;2023-05-07T01:56:29;3.13;;;2.50;;
58015;SDS011;43809;52.110;20.964;2023-05-07T01:58:29;3.10;;;2.13;;
58015;SDS011;43809;52.110;20.964;2023-05-07T02:00:31;4.05;;;2.80;;
58015;SDS011;43809;52.110;20.964;2023-05-07T02:02:32;2.97;;;2.30;;
58015;SDS011;43809;52.110;20.964;2023-05-07T02:04:32;3.92;;;2.60;;
58015;SDS011;43809;52.110;20.964;2023-05-07T02:06:32;3.75;;;2.70;;
58015;SDS011;43809;52.110;20.964;2023-05-07T02:08:32;3.70;;;2.60;;
58015;SDS011;43809;52.110;20.964;2023-05-07T02:10:32;4.13;;;2.50;;
58015;SDS011;43809;52.110;20.964;2023-05-07T02:12:32;4.72;;;3.10;;
58015;SDS011;43809;52.110;20.964;2023-05-07T02:14:33;3.53;;;2.80;;
58015;SDS011;43809;52.110;20.964;2023-05-07T02:16:33;4.45;;;2.88;;
58015;SDS011;43809;52.110;20.964;2023-05-07T02:18:33;4.05;;;2.70;;
58015;SDS011;43809;52.110;20.964;2023-05-07T02:20:35;3.83;;;2.63;;
58015;SDS011;43809;52.110;20.964;2023-05-07T02:22:35;5.50;;;2.92;;
58015;SDS011;43809;52.110;20.964;2023-05-07T02:24:35;4.07;;;3.10;;
58015;SDS011;43809;52.110;20.964;2023-05-07T02:26:35;4.13;;;2.72;;
58015;SDS011;43809;52.110;20.964;2023-05-07T02:28:35;3.45;;;2.47;;
58015;SDS011;43809;52.110;20.964;2023-05-07T02:30:36;4.07;;;2.58;;
58015;SDS011;43809;52.110;20.964;2023-05-07T02:32:36;4.35;;;2.85;;
58015;SDS011;43809;52.110;20.964;2023-05-07T02:34:37;4.55;;;2.75;;
58015;SDS011;43809;52.110;20.964;2023-05-07T02:36:37;4.40;;;2.83;;
58015;SDS011;43809;52.110;20.964;2023-05-07T02:38:37;3.90;;;2.58;;
58015;SDS011;43809;52.110;20.964;2023-05-07T02:40:37;3.45;;;2.65;;
58015;SDS011;43809;52.110;20.964;2023-05-07T02:42:40;3.72;;;2.60;;
58015;SDS011;43809;52.110;20.964;2023-05-07T02:44:41;3.63;;;2.22;;
58015;SDS011;43809;52.110;20.964;2023-05-07T02:46:41;3.40;;;2.42;;
58015;SDS011;43809;52.110;20.964;2023-05-07T02:48:41;2.92;;;2.30;;
58015;SDS011;43809;52.110;20.964;2023-05-07T02:50:41;3.80;;;2.70;;
58015;SDS011;43809;52.110;20.964;2023-05-07T02:52:41;3.47;;;2.60;;
58015;SDS011;43809;52.110;20.964;2023-05-07T02:54:43;4.43;;;2.30;;
58015;SDS011;43809;52.110;20.964;2023-05-07T02:56:43;4.28;;;2.75;;
58015;SDS011;43809;52.110;20.964;2023-05-07T02:58:43;3.67;;;2.58;;
58015;SDS011;43809;52.110;20.964;2023-05-07T03:00:51;3.45;;;2.55;;
58015;SDS011;43809;52.110;20.964;2023-05-07T03:02:52;4.20;;;2.63;;
58015;SDS011;43809;52.110;20.964;2023-05-07T03:04:52;2.78;;;2.30;;
58015;SDS011;43809;52.110;20.964;2023-05-07T03:06:52;5.30;;;2.55;;
58015;SDS011;43809;52.110;20.964;2023-05-07T03:08:57;3.10;;;2.47;;
58015;SDS011;43809;52.110;20.964;2023-05-07T03:10:58;4.80;;;2.78;;
58015;SDS011;43809;52.110;20.964;2023-05-07T03:12:58;4.15;;;2.55;;
58015;SDS011;43809;52.110;20.964;2023-05-07T03:14:58;4.15;;;2.67;;
58015;SDS011;43809;52.110;20.964;2023-05-07T03:16:58;3.58;;;2.65;;
58015;SDS011;43809;52.110;20.964;2023-05-07T03:18:59;4.22;;;2.90;;
58015;SDS011;43809;52.110;20.964;2023-05-07T03:20:59;4.20;;;2.50;;
58015;SDS011;43809;52.110;20.964;2023-05-07T03:22:59;2.65;;;2.30;;
58015;SDS011;43809;52.110;20.964;2023-05-07T03:24:59;3.40;;;2.50;;
58015;SDS011;43809;52.110;20.964;2023-05-07T03:27:00;3.72;;;2.42;;
58015;SDS011;43809;52.110;20.964;2023-05-07T03:29:01;3.20;;;2.50;;
58015;SDS011;43809;52.110;20.964;2023-05-07T03:31:01;4.18;;;2.50;;
58015;SDS011;43809;52.110;20.964;2023-05-07T03:33:02;5.43;;;2.55;;
58015;SDS011;43809;52.110;20.964;2023-05-07T03:35:02;4.20;;;2.17;;
58015;SDS011;43809;52.110;20.964;2023-05-07T03:37:03;3.15;;;2.25;;
58015;SDS011;43809;52.110;20.964;2023-05-07T03:39:03;3.70;;;2.25;;
58015;SDS011;43809;52.110;20.964;2023-05-07T03:41:04;3.13;;;2.30;;
58015;SDS011;43809;52.110;20.964;2023-05-07T03:43:04;3.28;;;2.45;;
58015;SDS011;43809;52.110;20.964;2023-05-07T03:45:04;3.00;;;2.13;;
58015;SDS011;43809;52.110;20.964;2023-05-07T03:47:05;3.33;;;2.15;;
58015;SDS011;43809;52.110;20.964;2023-05-07T03:49:05;2.70;;;2.10;;
58015;SDS011;43809;52.110;20.964;2023-05-07T03:51:05;3.42;;;2.25;;
58015;SDS011;43809;52.110;20.964;2023-05-07T03:53:07;3.05;;;2.30;;
58015;SDS011;43809;52.110;20.964;2023-05-07T03:55:07;2.92;;;2.47;;
58015;SDS011;43809;52.110;20.964;2023-05-07T03:57:07;3.85;;;2.25;;
58015;SDS011;43809;52.110;20.964;2023-05-07T03:59:07;3.05;;;2.08;;
58015;SDS011;43809;52.110;20.964;2023-05-07T04:01:09;3.65;;;2.08;;
58015;SDS011;43809;52.110;20.964;2023-05-07T04:03:09;4.20;;;1.90;;
58015;SDS011;43809;52.110;20.964;2023-05-07T04:05:09;3.53;;;2.40;;
58015;SDS011;43809;52.110;20.964;2023-05-07T04:07:09;2.35;;;2.10;;
58015;SDS011;43809;52.110;20.964;2023-05-07T04:09:10;2.85;;;2.10;;
58015;SDS011;43809;52.110;20.964;2023-05-07T04:11:10;4.70;;;2.10;;
58015;SDS011;43809;52.110;20.964;2023-05-07T04:13:11;3.13;;;1.83;;
58015;SDS011;43809;52.110;20.964;2023-05-07T04:15:11;3.50;;;2.20;;
58015;SDS011;43809;52.110;20.964;2023-05-07T04:17:11;4.45;;;2.30;;
58015;SDS011;43809;52.110;20.964;2023-05-07T04:19:15;3.22;;;2.30;;
58015;SDS011;43809;52.110;20.964;2023-05-07T04:21:15;3.03;;;2.25;;
58015;SDS011;43809;52.110;20.964;2023-05-07T04:23:16;3.75;;;2.40;;
58015;SDS011;43809;52.110;20.964;2023-05-07T04:25:16;2.67;;;2.08;;
58015;SDS011;43809;52.110;20.964;2023-05-07T04:27:16;1.98;;;1.77;;
58015;SDS011;43809;52.110;20.964;2023-05-07T04:29:16;3.17;;;2.30;;
58015;SDS011;43809;52.110;20.964;2023-05-07T04:31:17;2.00;;;1.80;;
58015;SDS011;43809;52.110;20.964;2023-05-07T04:33:17;2.42;;;1.90;;
58015;SDS011;43809;52.110;20.964;2023-05-07T04:35:17;4.90;;;2.10;;
58015;SDS011;43809;52.110;20.964;2023-05-07T04:37:17;2.72;;;1.92;;
58015;SDS011;43809;52.110;20.964;2023-05-07T04:39:18;2.92;;;2.00;;
58015;SDS011;43809;52.110;20.964;2023-05-07T04:41:18;2.53;;;1.90;;
58015;SDS011;43809;52.110;20.964;2023-05-07T04:43:18;2.70;;;2.00;;
58015;SDS011;43809;52.110;20.964;2023-05-07T04:45:19;3.13;;;1.97;;
58015;SDS011;43809;52.110;20.964;2023-05-07T04:47:19;2.03;;;1.67;;
58015;SDS011;43809;52.110;20.964;2023-05-07T04:49:19;2.60;;;2.00;;
58015;SDS011;43809;52.110;20.964;2023-05-07T04:51:19;4.00;;;2.40;;
58015;SDS011;43809;52.110;20.964;2023-05-07T04:53:20;3.05;;;2.05;;
58015;SDS011;43809;52.110;20.964;2023-05-07T04:55:21;2.35;;;1.80;;
58015;SDS011;43809;52.110;20.964;2023-05-07T04:57:21;2.72;;;2.08;;
58015;SDS011;43809;52.110;20.964;2023-05-07T04:59:21;2.40;;;2.13;;
58015;SDS011;43809;52.110;20.964;2023-05-07T05:01:21;2.47;;;1.98;;
58015;SDS011;43809;52.110;20.964;2023-05-07T05:03:23;2.53;;;2.10;;
58015;SDS011;43809;52.110;20.964;2023-05-07T05:05:24;2.58;;;1.60;;
58015;SDS011;43809;52.110;20.964;2023-05-07T05:07:24;2.60;;;1.87;;
58015;SDS011;43809;52.110;20.964;2023-05-07T05:09:24;3.10;;;1.90;;
58015;SDS011;43809;52.110;20.964;2023-05-07T05:11:25;3.03;;;2.30;;
58015;SDS011;43809;52.110;20.964;2023-05-07T05:13:25;4.50;;;2.50;;
58015;SDS011;43809;52.110;20.964;2023-05-07T05:15:25;3.10;;;2.17;;
58015;SDS011;43809;52.110;20.964;2023-05-07T05:17:25;2.83;;;2.38;;
58015;SDS011;43809;52.110;20.964;2023-05-07T05:19:25;2.97;;;2.10;;
58015;SDS011;43809;52.110;20.964;2023-05-07T05:21:25;2.85;;;2.35;;
58015;SDS011;43809;52.110;20.964;2023-05-07T05:23:26;2.53;;;1.88;;
58015;SDS011;43809;52.110;20.964;2023-05-07T05:25:26;3.42;;;2.30;;
58015;SDS011;43809;52.110;20.964;2023-05-07T05:27:28;2.75;;;2.13;;
58015;SDS011;43809;52.110;20.964;2023-05-07T05:29:28;2.33;;;2.00;;
58015;SDS011;43809;52.110;20.964;2023-05-07T05:31:29;3.63;;;2.25;;
58015;SDS011;43809;52.110;20.964;2023-05-07T05:33:29;2.47;;;2.10;;
58015;SDS011;43809;52.110;20.964;2023-05-07T05:35:29;2.63;;;2.03;;
58015;SDS011;43809;52.110;20.964;2023-05-07T05:37:30;2.55;;;1.95;;
58015;SDS011;43809;52.110;20.964;2023-05-07T05:39:31;2.75;;;2.00;;
58015;SDS011;43809;52.110;20.964;2023-05-07T05:41:31;3.63;;;2.28;;
58015;SDS011;43809;52.110;20.964;2023-05-07T05:43:31;2.83;;;2.30;;
58015;SDS011;43809;52.110;20.964;2023-05-07T05:45:32;2.70;;;2.00;;
58015;SDS011;43809;52.110;20.964;2023-05-07T05:47:32;2.90;;;2.03;;
58015;SDS011;43809;52.110;20.964;2023-05-07T05:49:32;2.88;;;2.20;;
58015;SDS011;43809;52.110;20.964;2023-05-07T05:51:33;3.05;;;2.10;;
58015;SDS011;43809;52.110;20.964;2023-05-07T05:53:33;2.15;;;1.90;;
58015;SDS011;43809;52.110;20.964;2023-05-07T05:55:33;2.50;;;2.05;;
58015;SDS011;43809;52.110;20.964;2023-05-07T05:57:34;3.60;;;2.20;;
58015;SDS011;43809;52.110;20.964;2023-05-07T05:59:34;3.60;;;2.22;;
58015;SDS011;43809;52.110;20.964;2023-05-07T06:01:35;2.05;;;1.73;;
58015;SDS011;43809;52.110;20.964;2023-05-07T06:03:35;2.67;;;1.83;;
58015;SDS011;43809;52.110;20.964;2023-05-07T06:05:35;2.25;;;2.00;;
58015;SDS011;43809;52.110;20.964;2023-05-07T06:07:35;2.60;;;2.10;;
58015;SDS011;43809;52.110;20.964;2023-05-07T06:09:35;2.00;;;1.70;;
58015;SDS011;43809;52.110;20.964;2023-05-07T06:11:35;1.80;;;1.50;;
58015;SDS011;43809;52.110;20.964;2023-05-07T06:13:36;1.75;;;1.58;;
58015;SDS011;43809;52.110;20.964;2023-05-07T06:15:36;2.42;;;1.75;;
58015;SDS011;43809;52.110;20.964;2023-05-07T06:17:36;2.90;;;1.48;;
58015;SDS011;43809;52.110;20.964;2023-05-07T06:19:36;2.10;;;1.65;;
58015;SDS011;43809;52.110;20.964;2023-05-07T06:21:37;2.33;;;1.80;;
58015;SDS011;43809;52.110;20.964;2023-05-07T06:23:37;4.67;;;1.80;;
58015;SDS011;43809;52.110;20.964;2023-05-07T06:25:37;1.60;;;1.50;;
58015;SDS011;43809;52.110;20.964;2023-05-07T06:27:37;2.58;;;1.50;;
58015;SDS011;43809;52.110;20.964;2023-05-07T06:29:39;2.22;;;1.65;;
58015;SDS011;43809;52.110;20.964;2023-05-07T06:31:39;2.38;;;1.52;;
58015;SDS011;43809;52.110;20.964;2023-05-07T06:33:40;2.38;;;1.90;;
58015;SDS011;43809;52.110;20.964;2023-05-07T06:35:40;1.90;;;1.70;;
58015;SDS011;43809;52.110;20.964;2023-05-07T06:37:41;2.60;;;1.70;;
58015;SDS011;43809;52.110;20.964;2023-05-07T06:39:42;1.95;;;1.75;;
58015;SDS011;43809;52.110;20.964;2023-05-07T06:41:42;2.92;;;1.90;;
58015;SDS011;43809;52.110;20.964;2023-05-07T06:43:42;2.83;;;2.00;;
58015;SDS011;43809;52.110;20.964;2023-05-07T06:45:43;1.50;;;1.40;;
58015;SDS011;43809;52.110;20.964;2023-05-07T06:47:43;1.57;;;1.40;;
58015;SDS011;43809;52.110;20.964;2023-05-07T06:49:43;1.90;;;1.50;;
58015;SDS011;43809;52.110;20.964;2023-05-07T06:51:43;2.17;;;1.60;;
58015;SDS011;43809;52.110;20.964;2023-05-07T06:53:44;1.75;;;1.45;;
58015;SDS011;43809;52.110;20.964;2023-05-07T06:55:44;2.78;;;1.70;;
58015;SDS011;43809;52.110;20.964;2023-05-07T06:57:44;2.17;;;1.60;;
58015;SDS011;43809;52.110;20.964;2023-05-07T06:59:44;1.70;;;1.60;;
58015;SDS011;43809;52.110;20.964;2023-05-07T07:01:44;2.33;;;1.60;;
58015;SDS011;43809;52.110;20.964;2023-05-07T07:03:45;2.50;;;1.60;;
58015;SDS011;43809;52.110;20.964;2023-05-07T07:05:45;2.10;;;1.73;;
58015;SDS011;43809;52.110;20.964;2023-05-07T07:07:45;2.50;;;1.63;;
58015;SDS011;43809;52.110;20.964;2023-05-07T07:09:52;3.22;;;2.00;;
58015;SDS011;43809;52.110;20.964;2023-05-07T07:11:53;2.13;;;1.70;;
58015;SDS011;43809;52.110;20.964;2023-05-07T07:13:53;2.58;;;1.55;;
58015;SDS011;43809;52.110;20.964;2023-05-07T07:15:54;2.30;;;1.63;;
58015;SDS011;43809;52.110;20.964;2023-05-07T07:17:54;2.10;;;1.90;;
58015;SDS011;43809;52.110;20.964;2023-05-07T07:19:54;1.70;;;1.60;;
58015;SDS011;43809;52.110;20.964;2023-05-07T07:21:55;2.20;;;2.00;;
58015;SDS011;43809;52.110;20.964;2023-05-07T07:23:55;2.70;;;2.10;;
58015;SDS011;43809;52.110;20.964;2023-05-07T07:25:55;2.20;;;1.85;;
58015;SDS011;43809;52.110;20.964;2023-05-07T07:27:56;2.78;;;2.10;;
58015;SDS011;43809;52.110;20.964;2023-05-07T07:29:56;2.63;;;2.38;;
58015;SDS011;43809;52.110;20.964;2023-05-07T07:31:59;3.50;;;2.88;;
58015;SDS011;43809;52.110;20.964;2023-05-07T07:34:00;6.22;;;4.03;;
58015;SDS011;43809;52.110;20.964;2023-05-07T07:36:00;5.93;;;3.83;;
58015;SDS011;43809;52.110;20.964;2023-05-07T07:38:01;4.47;;;3.25;;
58015;SDS011;43809;52.110;20.964;2023-05-07T07:40:02;4.38;;;2.60;;
58015;SDS011;43809;52.110;20.964;2023-05-07T07:42:03;3.45;;;2.78;;
58015;SDS011;43809;52.110;20.964;2023-05-07T07:44:03;3.20;;;2.80;;
58015;SDS011;43809;52.110;20.964;2023-05-07T07:46:07;2.83;;;2.05;;
58015;SDS011;43809;52.110;20.964;2023-05-07T07:48:07;2.63;;;2.17;;
58015;SDS011;43809;52.110;20.964;2023-05-07T07:50:07;2.90;;;2.03;;
58015;SDS011;43809;52.110;20.964;2023-05-07T07:52:07;2.38;;;1.73;;
58015;SDS011;43809;52.110;20.964;2023-05-07T07:54:08;1.63;;;1.50;;
58015;SDS011;43809;52.110;20.964;2023-05-07T07:56:08;2.25;;;1.40;;
58015;SDS011;43809;52.110;20.964;2023-05-07T07:58:08;2.08;;;1.60;;
58015;SDS011;43809;52.110;20.964;2023-05-07T08:00:09;2.23;;;1.50;;
58015;SDS011;43809;52.110;20.964;2023-05-07T08:02:09;1.63;;;1.30;;
58015;SDS011;43809;52.110;20.964;2023-05-07T08:04:09;2.25;;;1.67;;
58015;SDS011;43809;52.110;20.964;2023-05-07T08:06:10;2.38;;;1.40;;
58015;SDS011;43809;52.110;20.964;2023-05-07T08:08:10;2.70;;;1.60;;
58015;SDS011;43809;52.110;20.964;2023-05-07T08:10:10;2.08;;;1.58;;
58015;SDS011;43809;52.110;20.964;2023-05-07T08:12:11;3.72;;;1.80;;
58015;SDS011;43809;52.110;20.964;2023-05-07T08:14:11;1.90;;;1.42;;
58015;SDS011;43809;52.110;20.964;2023-05-07T08:16:11;2.42;;;1.80;;
58015;SDS011;43809;52.110;20.964;2023-05-07T08:18:12;3.42;;;1.63;;
58015;SDS011;43809;52.110;20.964;2023-05-07T08:20:12;2.03;;;1.60;;
58015;SDS011;43809;52.110;20.964;2023-05-07T08:22:12;1.95;;;1.60;;
58015;SDS011;43809;52.110;20.964;2023-05-07T08:24:13;1.73;;;1.45;;
58015;SDS011;43809;52.110;20.964;2023-05-07T08:26:13;1.50;;;1.27;;
58015;SDS011;43809;52.110;20.964;2023-05-07T08:28:13;2.33;;;1.70;;
58015;SDS011;43809;52.110;20.964;2023-05-07T08:30:13;1.92;;;1.65;;
58015;SDS011;43809;52.110;20.964;2023-05-07T08:32:14;3.28;;;1.90;;
58015;SDS011;43809;52.110;20.964;2023-05-07T08:34:14;3.42;;;1.90;;
58015;SDS011;43809;52.110;20.964;2023-05-07T08:36:14;2.22;;;1.70;;
58015;SDS011;43809;52.110;20.964;2023-05-07T08:38:15;2.67;;;2.00;;
58015;SDS011;43809;52.110;20.964;2023-05-07T08:40:15;1.95;;;1.40;;
58015;SDS011;43809;52.110;20.964;2023-05-07T08:42:16;2.85;;;1.70;;
58015;SDS011;43809;52.110;20.964;2023-05-07T08:44:16;2.40;;;1.90;;
58015;SDS011;43809;52.110;20.964;2023-05-07T08:46:19;2.60;;;1.85;;
58015;SDS011;43809;52.110;20.964;2023-05-07T08:48:19;2.22;;;1.88;;
58015;SDS011;43809;52.110;20.964;2023-05-07T08:50:21;2.28;;;1.67;;
58015;SDS011;43809;52.110;20.964;2023-05-07T08:52:22;1.90;;;1.42;;
58015;SDS011;43809;52.110;20.964;2023-05-07T08:54:22;3.05;;;1.80;;
58015;SDS011;43809;52.110;20.964;2023-05-07T08:56:23;2.25;;;1.85;;
58015;SDS011;43809;52.110;20.964;2023-05-07T08:58:23;2.97;;;1.80;;
58015;SDS011;43809;52.110;20.964;2023-05-07T09:00:23;1.90;;;1.60;;
58015;SDS011;43809;52.110;20.964;2023-05-07T09:02:23;1.85;;;1.70;;
58015;SDS011;43809;52.110;20.964;2023-05-07T09:04:24;2.83;;;1.55;;
58015;SDS011;43809;52.110;20.964;2023-05-07T09:06:24;2.63;;;1.67;;
58015;SDS011;43809;52.110;20.964;2023-05-07T09:08:25;2.75;;;1.52;;
58015;SDS011;43809;52.110;20.964;2023-05-07T09:10:25;2.28;;;1.80;;
58015;SDS011;43809;52.110;20.964;2023-05-07T09:12:26;2.40;;;1.73;;
58015;SDS011;43809;52.110;20.964;2023-05-07T09:14:26;2.63;;;1.70;;
58015;SDS011;43809;52.110;20.964;2023-05-07T09:16:26;1.90;;;1.60;;
58015;SDS011;43809;52.110;20.964;2023-05-07T09:18:27;2.42;;;1.77;;
58015;SDS011;43809;52.110;20.964;2023-05-07T09:20:27;3.07;;;2.00;;
58015;SDS011;43809;52.110;20.964;2023-05-07T09:24:30;2.05;;;1.63;;
58015;SDS011;43809;52.110;20.964;2023-05-07T09:26:34;3.17;;;1.80;;
58015;SDS011;43809;52.110;20.964;2023-05-07T09:28:38;3.78;;;1.67;;
58015;SDS011;43809;52.110;20.964;2023-05-07T09:30:43;2.50;;;1.60;;
58015;SDS011;43809;52.110;20.964;2023-05-07T09:32:43;2.55;;;1.50;;
58015;SDS011;43809;52.110;20.964;2023-05-07T09:34:43;2.28;;;1.73;;
58015;SDS011;43809;52.110;20.964;2023-05-07T09:36:43;2.47;;;1.90;;
58015;SDS011;43809;52.110;20.964;2023-05-07T09:38:44;3.05;;;1.88;;
58015;SDS011;43809;52.110;20.964;2023-05-07T09:40:45;1.90;;;1.70;;
58015;SDS011;43809;52.110;20.964;2023-05-07T09:42:45;2.33;;;1.50;;
58015;SDS011;43809;52.110;20.964;2023-05-07T09:44:47;3.27;;;1.87;;
58015;SDS011;43809;52.110;20.964;2023-05-07T09:46:50;2.35;;;1.60;;
58015;SDS011;43809;52.110;20.964;2023-05-07T09:48:52;2.05;;;1.73;;
58015;SDS011;43809;52.110;20.964;2023-05-07T09:50:53;2.13;;;1.92;;
58015;SDS011;43809;52.110;20.964;2023-05-07T09:52:56;2.72;;;1.88;;
58015;SDS011;43809;52.110;20.964;2023-05-07T09:54:57;2.42;;;1.50;;
58015;SDS011;43809;52.110;20.964;2023-05-07T09:56:59;2.83;;;1.90;;
58015;SDS011;43809;52.110;20.964;2023-05-07T09:59:02;1.52;;;1.30;;
58015;SDS011;43809;52.110;20.964;2023-05-07T10:01:03;2.42;;;1.67;;
58015;SDS011;43809;52.110;20.964;2023-05-07T10:03:03;1.80;;;1.60;;
58015;SDS011;43809;52.110;20.964;2023-05-07T10:05:04;2.15;;;1.77;;
58015;SDS011;43809;52.110;20.964;2023-05-07T10:07:04;3.40;;;2.00;;
58015;SDS011;43809;52.110;20.964;2023-05-07T10:09:05;3.15;;;1.73;;
58015;SDS011;43809;52.110;20.964;2023-05-07T10:11:05;1.98;;;1.77;;
58015;SDS011;43809;52.110;20.964;2023-05-07T10:13:06;4.55;;;2.72;;
58015;SDS011;43809;52.110;20.964;2023-05-07T10:15:10;2.25;;;1.85;;
58015;SDS011;43809;52.110;20.964;2023-05-07T10:17:11;2.42;;;2.10;;
58015;SDS011;43809;52.110;20.964;2023-05-07T10:19:11;2.83;;;2.40;;
58015;SDS011;43809;52.110;20.964;2023-05-07T10:21:19;3.00;;;2.10;;
58015;SDS011;43809;52.110;20.964;2023-05-07T10:23:22;3.05;;;2.30;;
58015;SDS011;43809;52.110;20.964;2023-05-07T10:25:25;3.35;;;2.30;;
58015;SDS011;43809;52.110;20.964;2023-05-07T10:27:28;3.85;;;2.13;;
58015;SDS011;43809;52.110;20.964;2023-05-07T10:31:53;2.90;;;2.10;;
58015;SDS011;43809;52.110;20.964;2023-05-07T10:33:55;2.80;;;1.80;;
58015;SDS011;43809;52.110;20.964;2023-05-07T10:35:57;3.22;;;1.83;;
58015;SDS011;43809;52.110;20.964;2023-05-07T10:37:58;4.10;;;2.15;;
58015;SDS011;43809;52.110;20.964;2023-05-07T10:39:59;2.85;;;1.90;;
58015;SDS011;43809;52.110;20.964;2023-05-07T10:42:12;2.65;;;1.95;;
58015;SDS011;43809;52.110;20.964;2023-05-07T10:44:24;2.58;;;2.08;;
58015;SDS011;43809;52.110;20.964;2023-05-07T10:46:24;2.23;;;1.63;;
58015;SDS011;43809;52.110;20.964;2023-05-07T10:48:25;2.20;;;1.90;;
58015;SDS011;43809;52.110;20.964;2023-05-07T10:50:25;3.15;;;1.88;;
58015;SDS011;43809;52.110;20.964;2023-05-07T10:52:25;1.92;;;1.70;;
58015;SDS011;43809;52.110;20.964;2023-05-07T10:54:30;2.17;;;1.83;;
58015;SDS011;43809;52.110;20.964;2023-05-07T10:56:30;2.50;;;1.70;;
58015;SDS011;43809;52.110;20.964;2023-05-07T10:58:30;2.20;;;1.70;;
58015;SDS011;43809;52.110;20.964;2023-05-07T11:07:21;2.00;;;1.70;;
58015;SDS011;43809;52.110;20.964;2023-05-07T11:09:23;2.00;;;1.60;;
58015;SDS011;43809;52.110;20.964;2023-05-07T11:11:43;3.07;;;1.70;;
58015;SDS011;43809;52.110;20.964;2023-05-07T11:13:45;4.00;;;1.80;;
58015;SDS011;43809;52.110;20.964;2023-05-07T11:15:46;3.80;;;1.85;;
58015;SDS011;43809;52.110;20.964;2023-05-07T11:17:53;2.85;;;1.65;;
58015;SDS011;43809;52.110;20.964;2023-05-07T11:19:54;3.25;;;2.00;;
58015;SDS011;43809;52.110;20.964;2023-05-07T11:21:55;3.63;;;1.58;;
58015;SDS011;43809;52.110;20.964;2023-05-07T11:23:55;2.95;;;2.10;;
58015;SDS011;43809;52.110;20.964;2023-05-07T11:26:14;4.63;;;1.80;;
58015;SDS011;43809;52.110;20.964;2023-05-07T11:28:15;1.98;;;1.52;;
58015;SDS011;43809;52.110;20.964;2023-05-07T11:30:19;3.17;;;2.10;;
58015;SDS011;43809;52.110;20.964;2023-05-07T11:32:23;5.32;;;2.03;;
58015;SDS011;43809;52.110;20.964;2023-05-07T11:34:24;2.20;;;1.63;;
58015;SDS011;43809;52.110;20.964;2023-05-07T11:36:24;4.95;;;2.00;;
58015;SDS011;43809;52.110;20.964;2023-05-07T11:38:26;4.65;;;2.30;;
58015;SDS011;43809;52.110;20.964;2023-05-07T11:40:26;2.45;;;2.15;;
58015;SDS011;43809;52.110;20.964;2023-05-07T11:42:29;2.13;;;1.58;;
58015;SDS011;43809;52.110;20.964;2023-05-07T11:44:44;2.85;;;1.88;;
58015;SDS011;43809;52.110;20.964;2023-05-07T11:46:46;3.10;;;1.63;;
58015;SDS011;43809;52.110;20.964;2023-05-07T11:48:46;2.25;;;1.75;;
58015;SDS011;43809;52.110;20.964;2023-05-07T11:50:53;1.95;;;1.73;;
58015;SDS011;43809;52.110;20.964;2023-05-07T11:52:53;2.30;;;1.80;;
58015;SDS011;43809;52.110;20.964;2023-05-07T11:54:55;1.55;;;1.30;;
58015;SDS011;43809;52.110;20.964;2023-05-07T11:56:55;2.28;;;1.63;;
58015;SDS011;43809;52.110;20.964;2023-05-07T11:58:56;3.13;;;1.50;;
58015;SDS011;43809;52.110;20.964;2023-05-07T12:00:56;1.30;;;1.20;;
58015;SDS011;43809;52.110;20.964;2023-05-07T12:02:56;1.80;;;1.30;;
58015;SDS011;43809;52.110;20.964;2023-05-07T12:04:56;2.67;;;1.50;;
58015;SDS011;43809;52.110;20.964;2023-05-07T12:06:56;2.20;;;1.60;;
58015;SDS011;43809;52.110;20.964;2023-05-07T12:08:57;1.83;;;1.47;;